Time;durP1;ratioP1;P1;durP2;ratioP2;P2;SDS_P1;SDS_P2;PMS_P1;PMS_P2;Temp;Humidity;BMP_temperature;BMP_pressure;BME280_temperature;BME280_humidity;BME280_pressure;Samples;Min_cycle;Max_cycle;Signal;HPM_P1;HPM_P2
2023/08/01 00:01:55;;;;;;;1.15;1.00;;;;;;;19.62;100.00;97063.34;1222434;75;2923225;-64
2023/08/01 00:04:28;;;;;;;1.40;1.10;;;;;;;19.64;100.00;97061.50;1223225;83;2924081;-66
2023/08/01 00:07:01;;;;;;;1.30;1.10;;;;;;;19.66;100.00;97063.72;1222783;75;2929473;-66
2023/08/01 00:09:33;;;;;;;1.65;0.95;;;;;;;19.63;100.00;97060.03;1222401;75;2922376;-66
2023/08/01 00:12:06;;;;;;;1.75;1.10;;;;;;;19.62;100.00;97061.28;1223257;75;2921830;-65
2023/08/01 00:14:42;;;;;;;1.60;1.10;;;;;;;19.61;100.00;97050.75;1222838;75;2925171;-65
2023/08/01 00:17:15;;;;;;;1.60;1.20;;;;;;;19.47;100.00;97048.13;1223563;75;2929390;-66
2023/08/01 00:19:48;;;;;;;1.50;1.05;;;;;;;19.49;100.00;97042.03;1223757;75;2920850;-66
2023/08/01 00:22:20;;;;;;;1.00;0.90;;;;;;;19.54;100.00;97039.06;1222914;75;2930479;-66
2023/08/01 00:24:53;;;;;;;1.00;0.90;;;;;;;19.49;100.00;97030.94;1222836;75;2932685;-68
2023/08/01 00:27:26;;;;;;;1.20;1.00;;;;;;;19.42;100.00;97028.88;1223604;75;2925163;-66
2023/08/01 00:30:01;;;;;;;2.00;1.15;;;;;;;19.11;100.00;97039.88;1222812;75;2917343;-67
2023/08/01 00:32:31;;;;;;;2.50;1.40;;;;;;;19.13;100.00;97040.81;1223701;75;2922179;-64
2023/08/01 00:35:04;;;;;;;1.90;1.65;;;;;;;19.02;100.00;97037.63;1223458;75;2922252;-68
2023/08/01 00:37:36;;;;;;;2.70;1.80;;;;;;;19.22;100.00;97038.78;1223560;75;2921916;-66
2023/08/01 00:40:13;;;;;;;1.20;1.10;;;;;;;19.20;100.00;97035.84;1222689;75;2927815;-68
2023/08/01 00:42:46;;;;;;;1.25;1.15;;;;;;;19.10;100.00;97032.84;1223350;75;2917224;-67
2023/08/01 00:45:21;;;;;;;1.95;1.50;;;;;;;18.89;100.00;97035.72;1223656;75;2917858;-65
2023/08/01 00:47:54;;;;;;;1.75;1.55;;;;;;;18.92;100.00;97024.25;1222419;75;2924666;-66
2023/08/01 00:50:27;;;;;;;0.90;0.80;;;;;;;19.10;100.00;97027.31;1223496;75;2924554;-67
2023/08/01 00:53:00;;;;;;;1.10;1.00;;;;;;;19.13;100.00;97026.19;1223005;75;2935024;-65
2023/08/01 00:55:33;;;;;;;1.30;1.20;;;;;;;19.08;100.00;97013.25;1222934;75;2927536;-66
2023/08/01 00:58:06;;;;;;;1.55;1.10;;;;;;;19.11;100.00;97014.91;1223513;75;2925576;-67
2023/08/01 01:00:41;;;;;;;2.05;1.40;;;;;;;19.06;100.00;97011.00;1222705;75;2919529;-64
2023/08/01 01:03:14;;;;;;;1.45;1.10;;;;;;;19.05;100.00;97012.31;1223760;75;2924896;-65
2023/08/01 01:05:55;;;;;;;1.50;1.40;;;;;;;18.90;100.00;97001.88;1223900;75;2922826;-66
2023/08/01 01:08:28;;;;;;;2.05;1.20;;;;;;;18.77;100.00;96996.47;1222696;75;2938003;-66
2023/08/01 01:11:01;;;;;;;1.45;1.25;;;;;;;18.71;100.00;96993.06;1221916;67;2927813;-65
2023/08/01 01:13:33;;;;;;;1.95;1.30;;;;;;;18.67;100.00;96990.66;1223194;75;2928673;-65
2023/08/01 01:16:09;;;;;;;1.30;1.10;;;;;;;18.81;100.00;96994.09;1223087;75;2928744;-64
2023/08/01 01:18:41;;;;;;;1.20;1.10;;;;;;;18.81;100.00;96987.78;1223010;75;2930982;-66
2023/08/01 01:21:32;;;;;;;1.65;1.40;;;;;;;18.37;100.00;96980.16;1221922;75;2925164;-66
2023/08/01 01:24:05;;;;;;;2.80;1.80;;;;;;;18.36;100.00;96972.41;1222873;75;2934315;-67
2023/08/01 01:26:39;;;;;;;2.50;2.00;;;;;;;18.48;100.00;96968.75;1223614;75;2919932;-66
2023/08/01 01:29:14;;;;;;;3.90;1.60;;;;;;;18.49;100.00;96961.91;1221861;75;2921967;-66
2023/08/01 01:31:48;;;;;;;1.55;1.40;;;;;;;18.60;100.00;96960.88;1223535;75;2922888;-65
2023/08/01 01:34:21;;;;;;;1.10;0.95;;;;;;;18.64;100.00;96961.28;1223449;75;2926032;-65
2023/08/01 01:36:56;;;;;;;2.15;0.90;;;;;;;18.68;100.00;96949.81;1222986;75;2925850;-70
2023/08/01 01:39:29;;;;;;;1.10;1.00;;;;;;;18.65;100.00;96937.78;1222286;75;2924897;-64
2023/08/01 01:42:01;;;;;;;1.20;1.10;;;;;;;18.66;100.00;96941.31;1223421;75;2921825;-67
2023/08/01 01:44:34;;;;;;;2.80;1.50;;;;;;;18.49;100.00;96945.28;1223351;75;2930005;-66
2023/08/01 01:47:07;;;;;;;1.75;1.40;;;;;;;18.51;100.00;96934.41;1223788;75;2925729;-64
2023/08/01 01:49:40;;;;;;;1.75;1.40;;;;;;;18.50;100.00;96930.16;1222445;75;2929950;-64
2023/08/01 01:52:15;;;;;;;1.35;1.20;;;;;;;18.47;100.00;96936.81;1222932;83;2919540;-68
2023/08/01 01:54:47;;;;;;;1.10;1.00;;;;;;;18.55;100.00;96942.38;1222855;75;2924215;-67
2023/08/01 01:57:20;;;;;;;3.45;1.70;;;;;;;18.23;100.00;96945.50;1222836;75;2925896;-68
2023/08/01 01:59:53;;;;;;;1.95;1.60;;;;;;;18.25;100.00;96948.50;1222160;75;2920693;-65
2023/08/01 02:02:25;;;;;;;1.50;1.35;;;;;;;18.36;100.00;96941.91;1223170;75;2932168;-65
2023/08/01 02:04:58;;;;;;;2.05;1.85;;;;;;;18.39;100.00;96935.28;1223401;75;2933728;-67
2023/08/01 02:07:33;;;;;;;2.40;1.60;;;;;;;18.27;100.00;96924.50;1223169;75;2925264;-64
2023/08/01 02:10:06;;;;;;;1.70;1.60;;;;;;;18.22;100.00;96917.06;1222549;75;2920996;-64
2023/08/01 02:12:39;;;;;;;1.55;1.30;;;;;;;18.31;100.00;96921.38;1223445;75;2925014;-67
2023/08/01 02:15:12;;;;;;;1.20;1.10;;;;;;;18.08;100.00;96926.78;1223031;75;2927841;-65
2023/08/01 02:17:45;;;;;;;2.45;1.85;;;;;;;17.94;100.00;96934.44;1222892;75;2921770;-64
2023/08/01 02:20:17;;;;;;;2.60;1.85;;;;;;;18.25;100.00;96937.41;1220477;75;2922050;-64
2023/08/01 02:22:53;;;;;;;1.40;1.30;;;;;;;18.30;100.00;96928.97;1223280;75;2922476;-65
2023/08/01 02:25:25;;;;;;;2.25;1.35;;;;;;;18.25;100.00;96927.06;1222762;75;2920730;-66
2023/08/01 02:27:58;;;;;;;1.65;1.50;;;;;;;17.96;100.00;96920.06;1223525;75;2930060;-67
2023/08/01 02:30:30;;;;;;;1.65;1.40;;;;;;;18.12;100.00;96918.13;1221853;75;2917565;-68
2023/08/01 02:33:03;;;;;;;1.50;1.40;;;;;;;18.22;100.00;96917.06;1223082;75;2922367;-64
2023/08/01 02:35:36;;;;;;;1.20;1.05;;;;;;;18.18;100.00;96913.91;1223429;75;2926797;-68
2023/08/01 02:38:12;;;;;;;1.55;1.10;;;;;;;18.21;100.00;96915.59;1223491;75;2931679;-67
2023/08/01 02:40:44;;;;;;;1.55;1.20;;;;;;;18.27;100.00;96907.13;1211570;75;3749225;-67
2023/08/01 02:43:17;;;;;;;1.65;1.40;;;;;;;18.17;100.00;96917.97;1224184;75;2931400;-68
2023/08/01 02:45:50;;;;;;;1.05;0.95;;;;;;;18.17;100.00;96903.38;1223526;75;2924335;-64
2023/08/01 02:48:22;;;;;;;1.40;1.05;;;;;;;18.12;100.00;96896.72;1222970;75;2934747;-64
2023/08/01 02:50:55;;;;;;;1.10;1.00;;;;;;;18.12;100.00;96907.06;1222819;75;2933637;-65
2023/08/01 02:53:30;;;;;;;1.25;1.15;;;;;;;18.06;100.00;96907.19;1223849;75;2931696;-66
2023/08/01 02:56:03;;;;;;;1.10;1.00;;;;;;;18.05;100.00;96894.66;1222965;75;2925046;-63
2023/08/01 02:58:35;;;;;;;1.20;1.05;;;;;;;17.99;100.00;96891.28;1222728;75;2932106;-65
2023/08/01 03:01:10;;;;;;;1.25;1.00;;;;;;;17.99;100.00;96889.25;1222645;75;2924180;-67
2023/08/01 03:03:44;;;;;;;1.10;1.00;;;;;;;17.95;100.00;96885.34;1221762;75;2946917;-68
2023/08/01 03:06:18;;;;;;;1.20;1.10;;;;;;;17.96;100.00;96872.97;1223307;75;2944947;-66
2023/08/01 03:08:53;;;;;;;1.25;1.00;;;;;;;17.93;100.00;96880.34;1223407;83;2918863;-63
2023/08/01 03:11:25;;;;;;;1.35;1.20;;;;;;;17.94;100.00;96884.59;1222618;75;2923006;-65
2023/08/01 03:13:58;;;;;;;1.65;1.20;;;;;;;17.95;100.00;96871.50;1223956;75;2935578;-66
2023/08/01 03:16:30;;;;;;;1.20;1.10;;;;;;;17.88;100.00;96875.72;1223501;75;2921292;-65
2023/08/01 03:19:04;;;;;;;1.50;1.20;;;;;;;17.83;100.00;96855.19;1222031;75;2921656;-64
2023/08/01 03:21:37;;;;;;;1.30;1.00;;;;;;;17.85;100.00;96851.91;1222637;75;2925561;-69
2023/08/01 03:24:13;;;;;;;1.45;1.20;;;;;;;17.88;100.00;96859.84;1223802;75;2920747;-65
2023/08/01 03:26:45;;;;;;;1.20;1.10;;;;;;;17.79;100.00;96845.72;1223149;75;2923770;-64
2023/08/01 03:29:18;;;;;;;1.50;1.35;;;;;;;17.76;100.00;96847.56;1222969;75;2941196;-65
2023/08/01 03:31:50;;;;;;;1.25;1.10;;;;;;;17.69;100.00;96856.56;1222992;75;2923996;-63
2023/08/01 03:34:23;;;;;;;1.60;1.25;;;;;;;17.70;100.00;96860.06;1222389;75;2923837;-64
2023/08/01 03:36:56;;;;;;;2.00;1.30;;;;;;;17.64;100.00;96860.22;1223381;75;2922581;-69
2023/08/01 03:39:31;;;;;;;1.35;1.25;;;;;;;17.75;100.00;96856.41;1222974;75;2937352;-66
2023/08/01 03:42:03;;;;;;;0.80;0.80;;;;;;;17.78;100.00;96861.59;1222195;75;2923292;-66
2023/08/01 03:44:36;;;;;;;1.20;1.10;;;;;;;17.68;100.00;96860.63;1222362;75;2923498;-65
2023/08/01 03:47:09;;;;;;;2.15;1.40;;;;;;;17.49;100.00;96863.63;1223106;75;2919817;-64
2023/08/01 03:49:42;;;;;;;2.10;1.60;;;;;;;17.40;100.00;96864.84;1222574;75;2921041;-65
2023/08/01 03:52:14;;;;;;;1.50;1.30;;;;;;;17.63;100.00;96861.47;1222013;75;2928096;-67
2023/08/01 03:54:51;;;;;;;1.40;1.20;;;;;;;17.77;100.00;96865.63;1223365;75;2922213;-65
2023/08/01 03:57:24;;;;;;;1.30;1.20;;;;;;;17.74;100.00;96861.19;1223741;75;2930039;-66
2023/08/01 03:59:56;;;;;;;2.25;1.35;;;;;;;17.54;100.00;96870.28;1223384;75;2924458;-68
2023/08/01 04:02:29;;;;;;;2.55;2.30;;;;;;;17.31;100.00;96861.81;1224271;75;2917458;-67
2023/08/01 04:05:02;;;;;;;2.95;2.65;;;;;;;17.34;100.00;96860.72;1222919;75;2923661;-69
2023/08/01 04:07:35;;;;;;;3.40;2.25;;;;;;;17.63;100.00;96853.19;1222424;75;2929964;-66
2023/08/01 04:10:11;;;;;;;2.35;2.10;;;;;;;17.57;100.00;96855.38;1223681;75;2927233;-67
2023/08/01 04:12:45;;;;;;;2.70;2.30;;;;;;;17.39;100.00;96849.53;1223123;75;2924470;-68
2023/08/01 04:15:17;;;;;;;4.35;2.40;;;;;;;17.37;100.00;96846.56;1224123;75;2932819;-65
2023/08/01 04:17:50;;;;;;;3.15;2.85;;;;;;;17.57;100.00;96853.34;1223811;75;2910445;-66
2023/08/01 04:20:23;;;;;;;3.60;3.10;;;;;;;17.82;100.00;96850.97;1222230;75;2922160;-67
2023/08/01 04:22:55;;;;;;;4.65;3.80;;;;;;;17.80;100.00;96842.44;1223805;75;2921034;-64
2023/08/01 04:25:31;;;;;;;3.80;3.30;;;;;;;17.86;100.00;96847.81;1223205;75;2936673;-65
2023/08/01 04:28:04;;;;;;;3.70;3.30;;;;;;;17.90;100.00;96848.22;1222457;75;2921396;-66
2023/08/01 04:30:38;;;;;;;4.35;3.00;;;;;;;17.99;100.00;96850.50;1221856;75;2918436;-65
2023/08/01 04:33:10;;;;;;;6.00;4.55;;;;;;;18.00;100.00;96840.88;1223590;75;2924605;-68
2023/08/01 04:35:43;;;;;;;5.20;4.70;;;;;;;17.84;100.00;96840.06;1222958;75;2932403;-67
2023/08/01 04:38:15;;;;;;;5.20;3.90;;;;;;;17.93;100.00;96835.31;1223413;75;2927427;-69
2023/08/01 04:40:51;;;;;;;4.95;3.30;;;;;;;17.82;100.00;96850.97;1222341;75;2922074;-65
2023/08/01 04:43:23;;;;;;;3.55;2.50;;;;;;;17.93;100.00;96847.13;1222888;75;2922649;-64
2023/08/01 04:45:56;;;;;;;2.35;2.05;;;;;;;18.16;100.00;96847.25;1222617;75;2920449;-65
2023/08/01 04:48:28;;;;;;;2.65;2.00;;;;;;;18.30;100.00;96842.31;1223026;75;2923835;-67
2023/08/01 04:51:01;;;;;;;1.80;1.60;;;;;;;18.39;100.00;96846.59;1223187;75;2930517;-68
2023/08/01 04:53:34;;;;;;;2.15;1.45;;;;;;;18.41;100.00;96841.25;1223701;75;2928366;-66
2023/08/01 04:56:10;;;;;;;2.95;2.20;;;;;;;18.04;100.00;96840.56;1223443;75;2924496;-67
2023/08/01 04:58:42;;;;;;;2.40;2.20;;;;;;;18.12;100.00;96841.31;1223247;75;2930954;-66
2023/08/01 05:01:15;;;;;;;1.95;1.75;;;;;;;18.55;100.00;96844.63;1222246;75;2928623;-67
2023/08/01 05:03:47;;;;;;;3.15;2.10;;;;;;;18.53;100.00;96845.16;1223689;75;2921717;-65
2023/08/01 05:06:20;;;;;;;4.65;2.20;;;;;;;18.49;100.00;96844.78;1222224;75;2917194;-67
2023/08/01 05:08:52;;;;;;;3.20;2.30;;;;;;;18.88;100.00;96846.41;1222408;75;2921880;-67
2023/08/01 05:11:28;;;;;;;1.80;1.60;;;;;;;19.02;100.00;96844.16;1223113;75;2924353;-70
2023/08/01 05:14:00;;;;;;;2.10;1.90;;;;;;;19.24;100.00;96853.06;1223778;75;2918653;-67
2023/08/01 05:16:33;;;;;;;4.80;2.40;;;;;;;18.78;100.00;96847.47;1221558;75;2932636;-66
2023/08/01 05:19:05;;;;;;;3.85;2.80;;;;;;;18.92;100.00;96843.97;1221814;75;2927444;-67
2023/08/01 05:21:38;;;;;;;3.35;2.45;;;;;;;19.05;100.00;96839.56;1222043;75;2936391;-68
2023/08/01 05:24:10;;;;;;;5.60;2.75;;;;;;;19.03;100.00;96845.66;1223758;75;2923379;-67
2023/08/01 05:26:49;;;;;;;3.00;2.60;;;;;;;19.24;100.00;96839.19;1180866;75;3783796;-68
2023/08/01 05:29:22;;;;;;;3.55;3.10;;;;;;;19.22;100.00;96827.91;1200590;75;3491597;-67
2023/08/01 05:31:55;;;;;;;4.45;2.95;;;;;;;18.99;100.00;96834.19;1222187;75;2934672;-64
2023/08/01 05:34:27;;;;;;;2.80;2.40;;;;;;;19.31;100.00;96833.66;1222566;75;2932340;-67
2023/08/01 05:37:00;;;;;;;2.80;2.35;;;;;;;19.55;100.00;96831.59;1223938;75;2921461;-65
2023/08/01 05:39:33;;;;;;;3.00;2.70;;;;;;;19.46;100.00;96826.59;1222709;75;2921942;-67
2023/08/01 05:42:09;;;;;;;4.50;3.25;;;;;;;19.56;100.00;96822.72;1222339;75;2981978;-66
2023/08/01 05:44:42;;;;;;;3.80;2.65;;;;;;;19.85;100.00;96827.31;1223705;75;2924662;-65
2023/08/01 05:47:15;;;;;;;3.95;2.55;;;;;;;19.74;100.00;96823.63;1222680;75;2929298;-68
2023/08/01 05:49:47;;;;;;;3.20;2.30;;;;;;;19.81;100.00;96818.63;1223556;75;2924461;-68
2023/08/01 05:52:20;;;;;;;3.85;2.55;;;;;;;20.11;100.00;96818.53;1223304;75;2921648;-65
2023/08/01 05:54:52;;;;;;;3.65;2.60;;;;;;;20.22;100.00;96815.31;1224008;75;2926715;-66
2023/08/01 05:57:28;;;;;;;3.90;2.60;;;;;;;19.97;100.00;96814.50;1223401;75;2934801;-67
2023/08/01 06:00:00;;;;;;;5.25;2.70;;;;;;;20.44;100.00;96810.22;1222661;75;2928916;-68
2023/08/01 06:02:33;;;;;;;4.65;3.20;;;;;;;20.09;100.00;96804.47;1222175;75;2921634;-67
2023/08/01 06:05:06;;;;;;;3.55;2.85;;;;;;;20.17;100.00;96796.81;1223603;75;2928703;-68
2023/08/01 06:07:39;;;;;;;3.10;2.15;;;;;;;20.37;100.00;96794.31;1223073;75;2918067;-66
2023/08/01 06:10:12;;;;;;;3.30;2.60;;;;;;;20.32;100.00;96798.06;1222879;75;2926215;-68
2023/08/01 06:12:48;;;;;;;5.30;2.65;;;;;;;20.70;100.00;96802.69;1223672;75;2922478;-67
2023/08/01 06:15:21;;;;;;;3.80;2.60;;;;;;;20.52;100.00;96791.47;1222928;75;2927814;-70
2023/08/01 06:17:54;;;;;;;2.35;2.00;;;;;;;20.96;100.00;96787.50;1223324;75;2927832;-69
2023/08/01 06:20:26;;;;;;;3.30;2.10;;;;;;;20.98;100.00;96785.63;1222453;75;2948393;-67
2023/08/01 06:22:59;;;;;;;3.80;3.10;;;;;;;20.85;100.00;96781.09;1223574;75;2923003;-65
2023/08/01 06:25:31;;;;;;;3.25;2.25;;;;;;;21.26;100.00;96778.91;1223674;75;2925055;-68
2023/08/01 06:28:07;;;;;;;2.70;2.10;;;;;;;21.70;100.00;96778.31;1222822;75;2936600;-64
2023/08/01 06:30:40;;;;;;;4.15;2.90;;;;;;;21.29;100.00;96788.16;1222509;75;2922899;-65
2023/08/01 06:33:12;;;;;;;3.70;2.70;;;;;;;22.02;100.00;96776.66;1222949;75;2927090;-69
2023/08/01 06:35:45;;;;;;;3.25;2.50;;;;;;;21.72;100.00;96765.84;1223156;75;2933369;-65
2023/08/01 06:38:17;;;;;;;3.60;2.00;;;;;;;22.18;100.00;96777.22;1223344;75;2917577;-66
2023/08/01 06:40:50;;;;;;;2.55;1.80;;;;;;;22.48;100.00;96772.56;1222892;75;2918905;-66
2023/08/01 06:43:26;;;;;;;4.60;2.85;;;;;;;22.35;100.00;96773.66;1222050;75;2925633;-68
2023/08/01 06:45:59;;;;;;;5.30;4.25;;;;;;;21.78;100.00;96764.28;1222756;75;2932445;-69
2023/08/01 06:48:34;;;;;;;5.95;3.05;;;;;;;21.75;100.00;96767.50;1223298;75;2923067;-66
2023/08/01 06:51:06;;;;;;;3.40;3.10;;;;;;;22.04;100.00;96787.22;1223259;75;2926418;-68
2023/08/01 06:53:39;;;;;;;5.30;2.90;;;;;;;21.98;100.00;96786.72;1224158;75;2921841;-67
2023/08/01 06:56:12;;;;;;;3.90;3.25;;;;;;;21.93;100.00;96791.25;1222944;75;2930022;-67
2023/08/01 06:58:47;;;;;;;4.20;3.30;;;;;;;21.53;100.00;96800.59;1223363;75;2924114;-71
2023/08/01 07:01:19;;;;;;;3.85;2.60;;;;;;;22.05;100.00;96795.00;1223445;75;2922971;-67
2023/08/01 07:03:53;;;;;;;6.55;3.25;;;;;;;21.54;100.00;96796.47;1222359;75;2936961;-65
2023/08/01 07:06:26;;;;;;;5.30;3.25;;;;;;;21.52;100.00;96796.31;1223685;75;2928420;-65
2023/08/01 07:08:59;;;;;;;4.10;2.85;;;;;;;22.15;100.00;96772.75;1223135;83;2921425;-66
2023/08/01 07:11:31;;;;;;;3.60;3.00;;;;;;;21.89;100.00;96783.31;1220262;75;2987242;-67
2023/08/01 07:14:07;;;;;;;3.85;2.60;;;;;;;22.46;100.00;96783.56;1223738;75;2920124;-68
2023/08/01 07:16:39;;;;;;;25.25;20.55;;;;;;;22.51;100.00;96776.97;1222725;75;2921444;-66
2023/08/01 07:19:12;;;;;;;11.60;10.40;;;;;;;22.74;100.00;96766.22;1223340;75;2913656;-67
2023/08/01 07:21:47;;;;;;;5.85;4.75;;;;;;;22.81;100.00;96759.06;1222993;75;2928396;-69
2023/08/01 07:24:20;;;;;;;3.65;3.20;;;;;;;23.53;100.00;96770.72;1186574;75;5937440;-67
2023/08/01 07:26:53;;;;;;;2.85;2.35;;;;;;;23.85;98.16;96768.13;1223471;75;2923089;-69
2023/08/01 07:29:28;;;;;;;1.90;1.70;;;;;;;24.02;94.59;96763.09;1223541;75;2923560;-66
2023/08/01 07:32:01;;;;;;;3.30;2.00;;;;;;;24.28;91.99;96765.56;1223584;75;2923134;-71
2023/08/01 07:34:33;;;;;;;2.05;1.60;;;;;;;24.61;91.62;96757.41;1223033;75;2921911;-66
2023/08/01 07:37:07;;;;;;;2.45;2.00;;;;;;;24.67;87.98;96761.34;1222640;75;2924815;-65
2023/08/01 07:39:39;;;;;;;2.40;1.90;;;;;;;24.48;88.10;96755.81;1223177;75;2923560;-68
2023/08/01 07:42:12;;;;;;;4.25;2.80;;;;;;;24.22;91.18;96758.22;1223162;75;2928328;-71
2023/08/01 07:44:47;;;;;;;3.45;2.30;;;;;;;24.73;87.87;96746.34;1221167;75;3038461;-65
2023/08/01 07:47:20;;;;;;;2.25;1.80;;;;;;;25.02;87.51;96744.13;1222366;75;2922666;-68
2023/08/01 07:49:52;;;;;;;1.70;1.60;;;;;;;25.13;87.66;96742.72;1222237;75;2926718;-69
2023/08/01 07:52:25;;;;;;;1.60;1.35;;;;;;;25.15;86.98;96734.47;1223593;75;2930892;-66
2023/08/01 07:54:58;;;;;;;2.30;1.80;;;;;;;24.99;87.92;96727.75;1222806;75;2924614;-70
2023/08/01 07:57:31;;;;;;;2.65;1.45;;;;;;;25.04;87.50;96730.25;1223514;75;2924767;-69
2023/08/01 08:00:09;;;;;;;2.35;1.70;;;;;;;25.04;87.29;96735.88;1223042;75;2925129;-66
2023/08/01 08:02:41;;;;;;;1.60;1.35;;;;;;;25.39;85.63;96743.78;1223421;75;2927090;-69
2023/08/01 08:05:14;;;;;;;2.10;1.85;;;;;;;25.19;86.16;96743.16;1222717;75;2924423;-72
2023/08/01 08:07:47;;;;;;;4.10;2.80;;;;;;;24.47;92.71;96739.66;1223616;75;2910969;-68
2023/08/01 08:10:19;;;;;;;2.95;2.25;;;;;;;24.96;91.21;96749.31;1223501;75;2920128;-66
2023/08/01 08:12:52;;;;;;;3.15;2.00;;;;;;;25.37;88.27;96738.03;1223960;75;2923916;-71
2023/08/01 08:15:27;;;;;;;3.30;2.70;;;;;;;24.75;90.52;96735.25;1223436;75;2921587;-68
2023/08/01 08:18:00;;;;;;;2.70;2.00;;;;;;;24.90;92.54;96739.78;1223828;75;2919299;-67
2023/08/01 08:20:36;;;;;;;1.75;1.50;;;;;;;25.47;85.21;96741.53;1222646;75;2922605;-68
2023/08/01 08:23:09;;;;;;;2.85;2.20;;;;;;;25.54;84.70;96739.09;1223312;75;2922526;-67
2023/08/01 08:25:42;;;;;;;2.90;2.05;;;;;;;25.58;86.26;96728.88;1223244;75;2918758;-67
2023/08/01 08:28:15;;;;;;;1.95;1.55;;;;;;;25.97;82.32;96728.59;1222797;75;2921195;-68
2023/08/01 08:30:50;;;;;;;2.25;2.05;;;;;;;25.80;83.22;96729.59;1222956;75;2926173;-70
2023/08/01 08:33:24;;;;;;;1.60;1.40;;;;;;;26.10;80.30;96727.31;1224446;75;2843815;-68
2023/08/01 08:35:57;;;;;;;3.50;2.30;;;;;;;25.09;85.12;96731.28;1223490;75;2923350;-68
2023/08/01 08:38:29;;;;;;;2.45;2.00;;;;;;;25.75;82.22;96744.69;1222685;75;2926694;-67
2023/08/01 08:41:12;;;;;;;1.85;1.70;;;;;;;25.85;82.25;96730.59;1223163;75;2920642;-68
2023/08/01 08:43:46;;;;;;;2.20;2.00;;;;;;;25.25;88.20;96726.03;1223789;75;2935284;-67
2023/08/01 08:46:24;;;;;;;2.10;1.90;;;;;;;25.92;82.25;96724.06;1223814;75;2922184;-65
2023/08/01 08:48:57;;;;;;;2.75;1.90;;;;;;;26.17;79.26;96720.72;1224118;75;2922213;-70
2023/08/01 08:51:31;;;;;;;1.90;1.70;;;;;;;25.77;81.77;96718.88;1223017;75;2923324;-66
2023/08/01 08:54:05;;;;;;;3.65;1.90;;;;;;;26.20;82.26;96716.69;1222679;75;2928313;-66
2023/08/01 08:56:38;;;;;;;2.00;1.80;;;;;;;26.49;76.65;96719.19;1222958;75;2925004;-68
2023/08/01 08:59:12;;;;;;;2.05;1.55;;;;;;;26.83;74.42;96719.09;1223531;75;2925258;-67
2023/08/01 09:01:47;;;;;;;1.30;1.20;;;;;;;26.98;75.07;96712.97;1223468;75;2932895;-69
2023/08/01 09:04:20;;;;;;;1.85;1.60;;;;;;;26.59;77.52;96713.50;1223454;75;2919774;-66
2023/08/01 09:06:54;;;;;;;2.55;1.85;;;;;;;26.87;74.81;96706.03;1223127;75;2924160;-70
2023/08/01 09:09:27;;;;;;;3.10;2.25;;;;;;;25.79;80.17;96719.00;1224015;75;2925195;-67
2023/08/01 09:12:01;;;;;;;2.65;2.15;;;;;;;26.00;79.58;96721.03;1223432;75;2926387;-67
2023/08/01 09:14:35;;;;;;;3.75;2.45;;;;;;;26.08;78.67;96711.06;1221929;75;2928431;-68
2023/08/01 09:17:16;;;;;;;3.50;2.50;;;;;;;26.48;78.96;96708.56;1221807;75;2925663;-70
2023/08/01 09:19:48;;;;;;;3.05;2.40;;;;;;;26.88;74.36;96707.50;1222894;75;2931449;-69
2023/08/01 09:22:21;;;;;;;2.55;2.20;;;;;;;26.78;75.54;96698.47;1222845;75;2925414;-69
2023/08/01 09:24:57;;;;;;;2.65;2.40;;;;;;;26.39;74.57;96703.81;1223278;75;2923200;-69
2023/08/01 09:27:37;;;;;;;3.20;1.95;;;;;;;27.47;68.83;96704.63;1222705;75;2923588;-66
2023/08/01 09:30:15;;;;;;;2.80;1.90;;;;;;;27.34;68.67;96691.19;1222407;75;2935765;-68
2023/08/01 09:32:59;;;;;;;4.10;3.65;;;;;;;26.20;74.49;96696.34;1222154;75;2928832;-67
2023/08/01 09:35:44;;;;;;;4.12;2.82;;;;;;;26.04;77.23;96685.56;1196845;75;5693075;-65
2023/08/01 09:38:18;;;;;;;3.50;2.40;;;;;;;26.18;77.46;96685.72;1222744;75;2919130;-69
2023/08/01 09:40:50;;;;;;;4.05;2.05;;;;;;;26.44;76.40;96683.78;1222535;75;2919850;-68
2023/08/01 09:43:23;;;;;;;2.40;2.05;;;;;;;27.38;73.37;96685.81;1222200;75;2928880;-66
2023/08/01 09:45:57;;;;;;;2.05;1.80;;;;;;;27.13;73.77;96687.19;1223143;75;2921156;-66
2023/08/01 09:48:33;;;;;;;2.25;2.05;;;;;;;26.77;73.92;96692.13;1222744;75;2927828;-65
2023/08/01 09:51:14;;;;;;;2.45;2.00;;;;;;;27.11;75.75;96687.09;1223093;75;2924448;-68
2023/08/01 09:53:55;;;;;;;1.90;1.70;;;;;;;27.27;72.00;96692.19;1221998;75;2925083;-69
2023/08/01 09:56:30;;;;;;;1.85;1.65;;;;;;;27.14;73.06;96690.75;1222640;75;2933527;-71
2023/08/01 09:59:04;;;;;;;2.50;2.00;;;;;;;27.01;74.17;96674.50;1222741;75;2922841;-68
2023/08/01 10:01:38;;;;;;;1.50;1.40;;;;;;;27.16;72.04;96671.91;1222709;75;2929558;-68
2023/08/01 10:04:15;;;;;;;2.10;1.70;;;;;;;26.93;75.73;96663.53;1222747;75;2933998;-69
2023/08/01 10:06:57;;;;;;;2.10;1.60;;;;;;;27.13;75.34;96659.09;1223103;75;2922775;-69
2023/08/01 10:09:30;;;;;;;3.85;1.60;;;;;;;26.68;77.41;96664.91;1222624;75;2926829;-65
2023/08/01 10:12:03;;;;;;;2.10;1.80;;;;;;;25.75;82.27;96657.78;1222107;75;2920848;-68
2023/08/01 10:14:37;;;;;;;3.20;2.40;;;;;;;25.62;84.98;96644.34;1222995;75;2926690;-71
2023/08/01 10:17:11;;;;;;;2.70;2.00;;;;;;;26.33;80.71;96648.03;1219948;75;2927821;-68
2023/08/01 10:19:47;;;;;;;2.10;1.70;;;;;;;26.62;83.15;96633.66;1221677;75;2929095;-68
2023/08/01 10:22:20;;;;;;;1.25;1.15;;;;;;;26.68;84.31;96625.59;1221370;75;2923572;-70
2023/08/01 10:24:54;;;;;;;1.35;1.25;;;;;;;26.33;88.77;96628.38;1221650;75;2919916;-68
2023/08/01 10:27:27;;;;;;;1.55;1.40;;;;;;;26.42;85.51;96633.16;1223695;75;2932567;-68
2023/08/01 10:30:05;;;;;;;2.25;1.80;;;;;;;26.37;89.19;96633.53;1223283;75;2928320;-67
2023/08/01 10:32:40;;;;;;;1.60;1.50;;;;;;;26.71;89.06;96632.78;1221534;75;2925632;-65
2023/08/01 10:35:15;;;;;;;2.00;1.60;;;;;;;26.49;91.05;96634.25;1221712;75;2933654;-67
2023/08/01 10:37:49;;;;;;;1.85;1.60;;;;;;;26.38;90.90;96638.50;1223058;75;2924606;-69
2023/08/01 10:40:22;;;;;;;2.85;2.00;;;;;;;25.84;98.63;96637.34;1221955;75;2921160;-68
2023/08/01 10:42:55;;;;;;;2.95;2.35;;;;;;;25.61;100.00;96637.25;1222725;75;2923095;-69
2023/08/01 10:45:29;;;;;;;2.80;2.40;;;;;;;26.18;98.14;96637.28;1221900;75;2917707;-69
2023/08/01 10:48:13;;;;;;;2.40;2.10;;;;;;;25.81;98.90;96629.38;1223106;75;2924270;-65
2023/08/01 10:50:58;;;;;;;1.80;1.60;;;;;;;25.80;93.66;96637.06;1222449;75;2927034;-70
2023/08/01 10:53:42;;;;;;;3.40;2.35;;;;;;;25.44;100.00;96627.09;1224435;75;2927810;-70
2023/08/01 10:56:21;;;;;;;2.65;2.35;;;;;;;24.93;100.00;96638.50;1215642;75;3373154;-68
2023/08/01 10:58:54;;;;;;;3.05;2.45;;;;;;;25.04;100.00;96617.53;1222092;75;2960680;-68
2023/08/01 11:01:28;;;;;;;3.30;2.60;;;;;;;24.71;100.00;96623.78;1222449;75;2932933;-67
2023/08/01 11:04:00;;;;;;;2.40;2.20;;;;;;;25.17;100.00;96613.44;1224097;75;2936554;-67
2023/08/01 11:06:49;;;;;;;2.60;2.25;;;;;;;24.55;100.00;96598.22;1222914;75;2942580;-65
2023/08/01 11:09:23;;;;;;;2.35;2.10;;;;;;;25.19;100.00;96597.53;1223735;75;2922765;-65
2023/08/01 11:11:58;;;;;;;2.25;1.50;;;;;;;25.41;100.00;96589.81;1222679;67;2924401;-68
2023/08/01 11:14:32;;;;;;;1.65;1.30;;;;;;;25.59;100.00;96600.69;1223660;75;2922726;-68
2023/08/01 11:17:04;;;;;;;2.75;1.70;;;;;;;25.09;100.00;96605.25;1223061;75;2938253;-68
2023/08/01 11:19:37;;;;;;;1.45;1.35;;;;;;;25.44;100.00;96605.41;1222702;75;2922993;-67
2023/08/01 11:22:15;;;;;;;1.75;1.50;;;;;;;25.22;100.00;96604.72;1223647;75;2933309;-64
2023/08/01 11:24:54;;;;;;;1.80;1.50;;;;;;;25.12;100.00;96589.31;1224082;75;2917743;-69
2023/08/01 11:27:27;;;;;;;1.10;1.00;;;;;;;25.05;100.00;96586.09;1224501;75;2907587;-66
2023/08/01 11:30:00;;;;;;;1.45;1.30;;;;;;;24.91;100.00;96571.19;1222193;75;2924050;-66
2023/08/01 11:32:38;;;;;;;1.15;1.05;;;;;;;25.20;100.00;96570.25;1222808;75;2918659;-64
2023/08/01 11:35:12;;;;;;;1.80;1.65;;;;;;;24.82;100.00;96569.94;1223548;75;2917734;-69
2023/08/01 11:37:48;;;;;;;2.30;1.70;;;;;;;24.79;100.00;96570.38;1223326;75;2928831;-66
2023/08/01 11:40:21;;;;;;;2.90;2.20;;;;;;;24.49;100.00;96574.72;1223502;75;2917715;-66
2023/08/01 11:42:54;;;;;;;2.75;2.30;;;;;;;24.45;100.00;96566.75;1223126;75;2920514;-69